• Join FlightAware (Why Join?)
  • Login
  • US Flag 
07:32PM EDT


 

Airport Tracker/Info


-or-


 

Live Flight TrackerFlight Track Log ✈ C-GYFB ✈ 21-Aug-2013 ✈ CYFB - CYOW

Flight Track Log - Related Links

Times and Time Zones

All times are in EDT time to prevent confusion due to time zone crossing. See the C-GYFB flight status page for this flight to view local times or setup timezone preferences in your user account.

Time Position Orientation Groundspeed Altitude Reporting Facility
EDT Latitude Longitude Course Direction KTS MPH feet Rate Location/Type
11:30PM 63.8000 -68.5667 270° West 170 196 800  Level Montreal Center
11:31PM 63.8000 -68.6833 270° West 260 299 4,100 3,060 Climbing Montreal Center
11:32PM 63.7333 -68.7000 186° South 250 288 7,000 2,940 Climbing Montreal Center
11:33PM 63.6833 -68.6333 149° Southeast 280 322 10,000 2,700 Climbing Montreal Center
11:34PM 63.6000 -68.6167 175° South 290 334 12,400 2,340 Climbing Montreal Center
11:35PM 63.5167 -68.6667 195° South 330 380 14,700 2,160 Climbing Montreal Center
11:36PM 63.4167 -68.7333 197° South 340 391 16,800 2,400 Climbing Montreal Center
11:37PM 63.3333 -68.8000 200° South 350 403 19,600 2,160 Climbing Montreal Center
11:38PM 63.2333 -68.8500 193° South 360 414 21,200 1,560 Climbing Montreal Center
11:39PM 63.1333 -68.9167 197° South 370 426 22,800 1,500 Climbing Montreal Center
11:40PM 63.0333 -68.9833 197° South 380 437 24,200 1,380 Climbing Montreal Center
11:41PM 62.9167 -69.0333 191° South 390 449 25,600 1,380 Climbing Montreal Center
11:42PM 62.8167 -69.1000 197° South 400 460 27,000 1,260 Climbing Montreal Center
11:43PM 62.7000 -69.1667 195° South 400 460 28,200 1,200 Climbing Montreal Center
11:44PM 62.6000 -69.2500 201° Southwest 410 472 29,400 1,200 Climbing Montreal Center
11:45PM 62.4833 -69.3167 195° South 410 472 30,700 1,080 Climbing Montreal Center
11:46PM 62.3833 -69.3833 197° South 410 472 31,600 720 Climbing Montreal Center
11:47PM 62.2667 -69.4333 191° South 410 472 32,200 600 Climbing Montreal Center
11:48PM 62.1500 -69.5000 195° South 420 483 32,900 600 Climbing Montreal Center
11:49PM 62.0333 -69.5500 191° South 420 483 33,400 480 Climbing Montreal Center
11:50PM 61.9333 -69.6167 197° South 410 472 33,900 300 Climbing Montreal Center
11:51PM 61.8167 -69.7000 199° South 410 472 34,000  Climbing Montreal Center
11:52PM 61.7000 -69.7667 195° South 420 483 34,000  Level Montreal Center
11:53PM 61.6000 -69.8167 193° South 420 483 34,000  Level Montreal Center
11:54PM 61.4833 -69.8833 195° South 420 483 34,000  Level Montreal Center
11:55PM 61.3667 -69.9333 192° South 420 483 34,000  Level Montreal Center
11:56PM 61.2500 -70.0333 202° Southwest 430 495 34,000  Level Montreal Center
11:57PM 61.1333 -70.0833 192° South 430 495 34,000  Level Montreal Center
11:58PM 61.0167 -70.1333 192° South 430 495 34,000  Level Montreal Center
11:59PM 60.9000 -70.2000 196° South 420 483 34,000  Level Montreal Center
12:00AM 60.7833 -70.2500 192° South 430 495 34,000  Level Montreal Center
12:01AM 60.6667 -70.3000 192° South 430 495 34,000  Level Montreal Center
12:02AM 60.5500 -70.3500 192° South 430 495 34,000  Level Montreal Center
12:03AM 60.4333 -70.4500 203° Southwest 420 483 34,000  Level Montreal Center
12:04AM 60.3333 -70.5000 194° South 430 495 34,000  Level Montreal Center
12:05AM 60.2167 -70.5500 192° South 420 483 34,000  Level Montreal Center
12:06AM 60.1000 -70.6000 192° South 430 495 34,000  Level Montreal Center
12:07AM 59.9833 -70.6833 200° South 430 495 34,000  Level Montreal Center
12:08AM 59.8667 -70.7333 192° South 420 483 34,000  Level Montreal Center
12:09AM 59.7500 -70.7833 192° South 430 495 34,000  Level Montreal Center
12:10AM 59.6333 -70.8333 192° South 420 483 34,000  Level Montreal Center
12:11AM 59.5167 -70.8833 192° South 420 483 34,000  Level Montreal Center
12:12AM 59.4000 -70.9333 192° South 420 483 34,000  Level Montreal Center
12:13AM 59.3000 -70.9833 194° South 410 472 34,000  Level Montreal Center
12:14AM 59.1833 -71.0333 192° South 410 472 34,000  Level Montreal Center
12:15AM 59.0667 -71.1167 200° South 410 472 34,000  Level Montreal Center
12:16AM 58.9500 -71.1667 192° South 420 483 34,000  Level Montreal Center
12:17AM 58.8500 -71.2167 195° South 410 472 34,000  Level Montreal Center
12:18AM 58.7333 -71.2667 193° South 410 472 34,000  Level Montreal Center
12:19AM 58.6167 -71.3167 193° South 400 460 34,000  Level Montreal Center
12:20AM 58.5167 -71.3500 190° South 390 449 34,000  Level Montreal Center
12:21AM 58.4000 -71.4000 193° South 400 460 34,000  Level Montreal Center
12:22AM 58.3167 -71.4833 208° Southwest 400 460 34,000  Level Montreal Center
12:23AM 58.2000 -71.5167 189° South 390 449 34,000  Level Montreal Center
12:24AM 58.1000 -71.5667 195° South 390 449 34,000  Level Montreal Center
12:25AM 57.9833 -71.6167 193° South 390 449 34,000  Level Montreal Center
12:26AM 57.8833 -71.6500 190° South 390 449 34,000  Level Montreal Center
12:27AM 57.7833 -71.7000 195° South 380 437 34,000  Level Montreal Center
12:28AM 57.6667 -71.7500 193° South 380 437 34,000  Level Montreal Center
12:29AM 57.5667 -71.7833 190° South 380 437 34,000  Level Montreal Center
12:30AM 57.4667 -71.8333 195° South 370 426 34,000  Level Montreal Center
12:31AM 57.3667 -71.8667 190° South 370 426 34,000  Level Montreal Center
12:32AM 57.2667 -71.9167 195° South 360 414 34,000  Level Montreal Center
12:33AM 57.1667 -71.9500 190° South 360 414 34,000  Level Montreal Center
12:34AM 57.0667 -72.0000 195° South 350 403 34,000  Level Montreal Center
12:35AM 56.9833 -72.0333 192° South 350 403 34,000  Level Montreal Center
12:36AM 56.8833 -72.0833 195° South 350 403 34,000  Level Montreal Center
12:37AM 56.7833 -72.1167 190° South 350 403 34,000  Level Montreal Center
12:38AM 56.7000 -72.1667 198° South 340 391 34,000  Level Montreal Center
12:39AM 56.6000 -72.2000 190° South 340 391 34,000  Level Montreal Center
12:40AM 56.5167 -72.2333 192° South 340 391 34,000  Level Montreal Center
12:41AM 56.4167 -72.2833 195° South 340 391 34,000  Level Montreal Center
12:42AM 56.3167 -72.3167 190° South 340 391 34,000  Level Montreal Center
12:43AM 56.2167 -72.3667 196° South 340 391 34,000  Level Montreal Center
12:44AM 56.1333 -72.4000 193° South 340 391 34,000  Level Montreal Center
12:45AM 56.0333 -72.4333 191° South 340 391 34,000  Level Montreal Center
12:46AM 55.9500 -72.4667 193° South 330 380 34,000  Level Montreal Center
12:47AM 55.8667 -72.4833 186° South 330 380 34,000  Level Montreal Center
12:48AM 55.7667 -72.5167 191° South 330 380 34,000  Level Montreal Center
12:49AM 55.6833 -72.5500 193° South 330 380 34,000  Level Montreal Center
12:50AM 55.5833 -72.6000 196° South 330 380 34,000  Level Montreal Center
12:51AM 55.5000 -72.6333 193° South 330 380 34,000  Level Montreal Center
12:52AM 55.4000 -72.6667 191° South 330 380 34,000  Level Montreal Center
12:53AM 55.3167 -72.7000 193° South 330 380 34,000  Level Montreal Center
12:54AM 55.2167 -72.7500 196° South 330 380 34,000  Level Montreal Center
12:55AM 55.1333 -72.7833 193° South 330 380 34,000  Level Montreal Center
12:56AM 55.0333 -72.8167 191° South 330 380 34,000  Level Montreal Center
12:57AM 54.9500 -72.8500 193° South 330 380 34,000  Level Montreal Center
12:58AM 54.8667 -72.8833 193° South 330 380 34,000  Level Montreal Center
12:59AM 54.7667 -72.9333 196° South 330 380 34,000  Level Montreal Center
01:00AM 54.6833 -72.9333 180° South 340 391 34,000  Level Montreal Center
01:01AM 54.5833 -72.9667 191° South 330 380 34,000  Level Montreal Center
01:02AM 54.5000 -73.0000 193° South 330 380 34,000  Level Montreal Center
01:03AM 54.4000 -73.0333 191° South 340 391 34,000  Level Montreal Center
01:04AM 54.3000 -73.0833 196° South 340 391 34,000  Level Montreal Center
01:05AM 54.2167 -73.1167 193° South 330 380 34,000  Level Montreal Center
01:06AM 54.1167 -73.1500 191° South 330 380 34,000  Level Montreal Center
01:07AM 54.0333 -73.1833 193° South 340 391 34,000  Level Montreal Center
01:08AM 53.9500 -73.2167 193° South 330 380 34,000  Level Montreal Center
01:09AM 53.8500 -73.2500 191° South 340 391 34,000  Level Montreal Center
01:10AM 53.7667 -73.2833 193° South 340 391 34,000  Level Montreal Center
01:11AM 53.6667 -73.3167 191° South 340 391 34,000  Level Montreal Center
01:12AM 53.5833 -73.3500 193° South 340 391 34,000  Level Montreal Center
01:13AM 53.4833 -73.3833 191° South 340 391 34,000  Level Montreal Center
01:14AM 53.3833 -73.4167 191° South 340 391 34,000  Level Montreal Center
01:15AM 53.2833 -73.4500 191° South 350 403 34,000  Level Montreal Center
01:16AM 53.2000 -73.4833 193° South 340 391 34,000  Level Montreal Center
01:17AM 53.1000 -73.5167 191° South 340 391 34,000  Level Montreal Center
01:18AM 53.0167 -73.5500 194° South 340 391 34,000  Level Montreal Center
01:19AM 52.9167 -73.5667 186° South 350 403 34,000  Level Montreal Center
01:20AM 52.8167 -73.6000 191° South 340 391 34,000  Level Montreal Center
01:21AM 52.7333 -73.6333 194° South 340 391 34,000  Level Montreal Center
01:22AM 52.6333 -73.6667 191° South 340 391 34,000  Level Montreal Center
01:23AM 52.5500 -73.7000 194° South 350 403 34,000  Level Montreal Center
01:24AM 52.4500 -73.7333 191° South 350 403 34,000  Level Montreal Center
01:25AM 52.3500 -73.7667 192° South 350 403 34,000  Level Montreal Center
01:26AM 52.2500 -73.8000 192° South 350 403 34,000  Level Montreal Center
01:27AM 52.1667 -73.8167 187° South 350 403 34,000  Level Montreal Center
01:28AM 52.0667 -73.8500 192° South 350 403 34,000  Level Montreal Center
01:29AM 51.9500 -73.8833 190° South 350 403 34,000  Level Montreal Center
01:30AM 51.8500 -73.9167 192° South 360 414 34,000  Level Montreal Center
01:31AM 51.7500 -73.9500 192° South 360 414 34,000  Level Montreal Center
01:32AM 51.6500 -73.9833 192° South 360 414 34,000  Level Montreal Center
01:33AM 51.5500 -74.0167 192° South 360 414 34,000  Level Montreal Center
01:34AM 51.4500 -74.0500 192° South 360 414 34,000  Level Montreal Center
01:35AM 51.3500 -74.0833 192° South 360 414 34,000  Level Montreal Center
01:36AM 51.2667 -74.1167 194° South 360 414 34,000  Level Montreal Center
01:37AM 51.1500 -74.1333 185° South 360 414 34,000  Level Montreal Center
01:38AM 51.0667 -74.1667 194° South 370 426 34,000  Level Montreal Center
01:39AM 50.9500 -74.2000 190° South 360 414 34,000  Level Montreal Center
01:40AM 50.8667 -74.2333 194° South 360 414 34,000  Level Montreal Center
01:41AM 50.7667 -74.2667 192° South 360 414 34,000  Level Montreal Center
01:42AM 50.6667 -74.3000 192° South 360 414 34,000  Level Montreal Center
01:43AM 50.5667 -74.3167 186° South 360 414 34,000  Level Montreal Center
01:44AM 50.4667 -74.3500 192° South 360 414 34,000  Level Montreal Center
01:45AM 50.3667 -74.3833 192° South 360 414 34,000  Level Montreal Center
01:46AM 50.2667 -74.4167 192° South 370 426 34,000  Level Montreal Center
01:47AM 50.1667 -74.4500 192° South 370 426 34,000  Level Montreal Center
01:48AM 50.0667 -74.5000 198° South 370 426 34,000  Level Montreal Center
01:49AM 49.9667 -74.5333 192° South 380 437 34,000  Level Montreal Center
01:50AM 49.8500 -74.5500 185° South 380 437 34,000  Level Montreal Center
01:51AM 49.7667 -74.5833 194° South 380 437 34,000 480 Level Montreal Center
01:52AM 49.6500 -74.6167 190° South 370 426 35,000 780 Climbing Montreal Center
01:53AM 49.5667 -74.6500 195° South 350 403 35,600 480 Climbing Montreal Center
01:54AM 49.4667 -74.6667 186° South 350 403 36,000 180 Climbing Montreal Center
01:55AM 49.3667 -74.6833 186° South 360 414 36,000  Level Montreal Center
01:56AM 49.2500 -74.7000 185° South 370 426 36,000  Level Montreal Center
01:57AM 49.1500 -74.7333 192° South 390 449 36,000  Level Montreal Center
01:58AM 49.0500 -74.7667 192° South 390 449 36,000  Level Montreal Center
01:59AM 48.9333 -74.7833 185° South 400 460 36,000  Level Montreal Center
02:00AM 48.8333 -74.8167 192° South 400 460 36,000  Level Montreal Center
02:01AM 48.7000 -74.8500 189° South 410 472 36,000  Level Montreal Center
02:02AM 48.5833 -74.8667 185° South 410 472 36,000  Level Montreal Center
02:03AM 48.4667 -74.9000 191° South 410 472 36,000 -60 Level Montreal Center
02:04AM 48.3500 -74.9333 191° South 410 472 35,900  Descending Montreal Center
02:05AM 48.2333 -74.9500 185° South 420 483 36,000  Climbing Montreal Center
02:06AM 48.1167 -74.9833 191° South 420 483 36,000  Level Montreal Center
02:07AM 48.0000 -75.0167 191° South 420 483 36,000  Level Montreal Center
02:08AM 47.9000 -75.0333 186° South 420 483 36,000  Level Montreal Center
02:09AM 47.7833 -75.0667 191° South 420 483 36,000  Level Montreal Center
02:10AM 47.6667 -75.1000 191° South 430 495 36,000  Level Montreal Center
02:11AM 47.5333 -75.1167 185° South 430 495 36,000  Level Montreal Center
02:12AM 47.4167 -75.1500 191° South 440 506 36,000  Level Montreal Center
02:13AM 47.3000 -75.1667 186° South 440 506 36,000  Level Montreal Center
02:14AM 47.1667 -75.2000 190° South 440 506 36,000  Level Montreal Center
02:15AM 47.0500 -75.2000 180° South 440 506 36,000  Level Montreal Center
02:16AM 46.9333 -75.2333 191° South 450 518 36,000  Level Montreal Center
02:17AM 46.8167 -75.2500 186° South 450 518 36,000 -600 Level Montreal Center
02:18AM 46.6833 -75.2833 190° South 450 518 34,900 -2,280 Descending Montreal Center
02:19AM 46.5500 -75.3167 190° South 460 529 31,500 -3,600 Descending Montreal Center
02:20AM 46.4167 -75.3333 185° South 460 529 27,700 -4,200 Descending Montreal Center
02:21AM 46.3000 -75.3667 191° South 460 529 23,200 -4,800 Descending Montreal Center
02:22AM 46.1833 -75.3833 186° South 440 506 18,100 -4,680 Descending Montreal Center
02:23AM 46.0667 -75.4167 191° South 410 472 13,900 -3,240 Descending Montreal Center
02:24AM 45.9500 -75.4333 186° South 370 426 11,700 -1,200 Descending Montreal Center
02:25AM 45.8833 -75.4667 199° South 300 345 11,500 -660 Descending Montreal Center
02:26AM 45.8000 -75.4667 180° South 290 334 10,400 -1,440 Descending Montreal Center
02:27AM 45.7167 -75.4833 188° South 290 334 8,700 -1,500 Descending Montreal Center
02:28AM 45.6333 -75.4667 172° South 300 345 7,400 -1,260 Descending Montreal Center
02:29AM 45.5500 -75.4333 164° South 280 322 6,200 -1,200 Descending Montreal Center
02:30AM 45.4667 -75.4500 188° South 270 311 5,000 -1,200 Descending Montreal Center
02:31AM 45.4000 -75.4500 180° South 240 276 3,800 -900 Descending Montreal Center
02:32AM 45.3667 -75.5167 235° Southwest 190 219 3,200 -1,020 Descending Montreal Center
02:33AM 45.3500 -75.5667 245° Southwest 120 138 1,800 -1,020 Descending Montreal Center
02:34AM 45.3333 -75.5833 215° Southwest 100 115 1,200 -600 Descending Montreal Center
02:35AM 45.3167 -75.6333 245° Southwest 110 127 700 -540 Descending Montreal Center